createdAt,value
2023-01-17T00:00:51.023Z,92173.03
2023-01-17T00:03:17.427Z,92163.03
2023-01-17T00:05:43.853Z,92162.03
2023-01-17T00:08:10.264Z,92155.81
2023-01-17T00:10:36.664Z,92155.19
2023-01-17T00:13:03.073Z,92157.81
2023-01-17T00:15:29.461Z,92163.25
2023-01-17T00:17:55.841Z,92155.06
2023-01-17T00:20:22.226Z,92152.41
2023-01-17T00:22:48.619Z,92162.63
2023-01-17T00:25:15.031Z,92157.81
2023-01-17T00:27:41.422Z,92157.63
2023-01-17T00:30:07.805Z,92157.41
2023-01-17T00:32:34.261Z,92151.22
2023-01-17T00:35:00.682Z,92150.03
2023-01-17T00:37:27.109Z,92150.63
2023-01-17T00:39:53.492Z,92149.47
2023-01-17T00:42:19.869Z,92143.44
2023-01-17T00:44:46.267Z,92153.06
2023-01-17T00:47:12.679Z,92140.66
2023-01-17T00:49:39.052Z,92132.59
2023-01-17T00:52:05.438Z,92125.69
2023-01-17T00:54:31.929Z,92123.03
2023-01-17T00:56:58.341Z,92108.72
2023-01-17T00:59:24.741Z,92101.22
2023-01-17T01:01:51.257Z,92090.09
2023-01-17T01:04:17.750Z,92089.44
2023-01-17T01:06:44.155Z,92086.78
2023-01-17T01:09:10.580Z,92078.47
2023-01-17T01:11:36.981Z,92076.66
2023-01-17T01:14:03.359Z,92076.66
2023-01-17T01:16:29.785Z,92082.25
2023-01-17T01:18:56.226Z,92085.47
2023-01-17T01:24:06.905Z,92090.25
2023-01-17T01:26:33.321Z,92085.78
2023-01-17T01:28:59.729Z,92090.94
2023-01-17T01:31:26.198Z,92081.59
2023-01-17T01:33:52.613Z,92084.75
2023-01-17T01:36:19.011Z,92079.47
2023-01-17T01:38:45.409Z,92079.03
2023-01-17T01:41:11.846Z,92088.22
2023-01-17T01:43:38.244Z,92095.41
2023-01-17T01:46:04.684Z,92092.16
2023-01-17T01:48:31.106Z,92089.38
2023-01-17T01:50:57.501Z,92090.75
2023-01-17T01:53:23.929Z,92084.72
2023-01-17T01:55:50.305Z,92084.34
2023-01-17T01:58:16.822Z,92084.56
2023-01-17T02:00:43.280Z,92080.84
2023-01-17T02:03:09.694Z,92078.88
2023-01-17T02:05:36.086Z,92077.16
2023-01-17T02:08:02.497Z,92062.38
2023-01-17T02:10:28.883Z,92065.22
2023-01-17T02:12:55.419Z,92052.91
2023-01-17T02:15:21.792Z,92052.75
2023-01-17T02:17:48.178Z,92051.53
2023-01-17T02:20:14.573Z,92045.78
2023-01-17T02:22:40.943Z,92047.28
2023-01-17T02:25:07.354Z,92033.78
2023-01-17T02:27:33.755Z,92035.06
2023-01-17T02:30:00.172Z,92040.44
2023-01-17T02:32:26.589Z,92038.44
2023-01-17T02:34:52.977Z,92032.25
2023-01-17T02:37:19.398Z,92039.63
2023-01-17T02:39:45.881Z,92035.22
2023-01-17T02:42:12.259Z,92029.56
2023-01-17T02:44:38.627Z,92029.16
2023-01-17T02:47:05.010Z,92020.53
2023-01-17T02:49:31.412Z,92021.34
2023-01-17T02:51:57.803Z,92016.81
2023-01-17T02:54:24.255Z,92013.75
2023-01-17T02:56:50.652Z,92014.44
2023-01-17T02:59:17.051Z,92010.91
2023-01-17T03:01:43.586Z,92004.03
2023-01-17T03:04:10.086Z,91997.78
2023-01-17T03:06:36.490Z,91987.22
2023-01-17T03:09:02.903Z,91980.59
2023-01-17T03:11:29.302Z,91973.56
2023-01-17T03:13:55.720Z,91967.72
2023-01-17T03:16:22.164Z,91959.03
2023-01-17T03:18:48.588Z,91955.84
2023-01-17T03:21:14.989Z,91954.41
2023-01-17T03:23:41.418Z,91956.59
2023-01-17T03:26:07.808Z,91953.53
2023-01-17T03:28:34.196Z,91955.88
2023-01-17T03:31:00.633Z,91948.25
2023-01-17T03:33:27.021Z,91945.06
2023-01-17T03:35:53.433Z,91938.22
2023-01-17T03:38:19.840Z,91927.88
2023-01-17T03:40:46.283Z,91926.63
2023-01-17T03:43:12.712Z,91921.41
2023-01-17T03:45:39.128Z,91913.63
2023-01-17T03:48:05.498Z,91910.81
2023-01-17T03:50:31.898Z,91901.84
2023-01-17T03:52:58.306Z,91901.63
2023-01-17T03:55:24.733Z,91897.41
2023-01-17T03:57:51.114Z,91901.41
2023-01-17T04:00:17.505Z,91889.44
2023-01-17T04:02:43.930Z,91890.41
2023-01-17T04:05:10.393Z,91889.94
2023-01-17T04:07:36.761Z,91883.34
2023-01-17T04:10:03.149Z,91879.13
2023-01-17T04:12:29.530Z,91871.66
2023-01-17T04:14:55.943Z,91870.63
2023-01-17T04:17:22.365Z,91866.91
2023-01-17T04:19:48.762Z,91857.88
2023-01-17T04:22:15.134Z,91856.38
2023-01-17T04:24:41.560Z,91846.38
2023-01-17T04:27:07.959Z,91850.59
2023-01-17T04:29:34.375Z,91854.78
2023-01-17T04:32:00.809Z,91853.59
2023-01-17T04:34:27.213Z,91850.00
2023-01-17T04:36:53.608Z,91840.84
2023-01-17T04:39:20.016Z,91836.44
2023-01-17T04:41:46.418Z,91843.63
2023-01-17T04:44:12.820Z,91843.63
2023-01-17T04:46:39.258Z,91842.03
2023-01-17T04:49:05.709Z,91835.00
2023-01-17T04:51:32.094Z,91835.63
2023-01-17T04:53:58.490Z,91847.47
2023-01-17T04:56:24.915Z,91840.66
2023-01-17T04:58:51.306Z,91835.44
2023-01-17T05:01:17.742Z,91830.06
2023-01-17T05:03:44.245Z,91829.03
2023-01-17T05:06:10.652Z,91827.94
2023-01-17T05:08:37.080Z,91828.16
2023-01-17T05:11:03.467Z,91821.75
2023-01-17T05:13:29.922Z,91816.19
2023-01-17T05:15:56.397Z,91811.72
2023-01-17T05:18:22.854Z,91801.13
2023-01-17T05:20:49.260Z,91796.53
2023-01-17T05:23:15.642Z,91807.38
2023-01-17T05:25:42.044Z,91806.19
2023-01-17T05:28:08.452Z,91812.63
2023-01-17T05:30:34.824Z,91807.84
2023-01-17T05:33:01.215Z,91798.63
2023-01-17T05:35:27.596Z,91797.25
2023-01-17T05:37:54.000Z,91795.88
2023-01-17T05:40:20.382Z,91799.91
2023-01-17T05:42:46.779Z,91788.06
2023-01-17T05:45:13.170Z,91794.09
2023-01-17T05:47:39.627Z,91775.28
2023-01-17T05:50:06.006Z,91777.06
2023-01-17T05:52:32.388Z,91780.44
2023-01-17T05:54:58.799Z,91772.81
2023-01-17T05:57:25.197Z,91767.38
2023-01-17T05:59:51.613Z,91771.44
2023-01-17T06:02:18.087Z,91771.84
2023-01-17T06:04:44.552Z,91768.63
2023-01-17T06:07:10.953Z,91764.69
2023-01-17T06:09:37.400Z,91756.06
2023-01-17T06:12:03.773Z,91758.66
2023-01-17T06:14:30.167Z,91750.84
2023-01-17T06:16:56.618Z,91759.09
2023-01-17T06:19:22.989Z,91758.50
2023-01-17T06:21:49.387Z,91759.72
2023-01-17T06:24:15.776Z,91761.34
2023-01-17T06:26:42.160Z,91761.94
2023-01-17T06:29:08.570Z,91770.34
2023-01-17T06:31:35.051Z,91765.16
2023-01-17T06:34:01.522Z,91755.97
2023-01-17T06:36:27.895Z,91756.16
2023-01-17T06:38:54.306Z,91750.75
2023-01-17T06:41:20.762Z,91740.50
2023-01-17T06:43:47.160Z,91746.56
2023-01-17T06:46:13.578Z,91737.50
2023-01-17T06:48:39.999Z,91737.50
2023-01-17T06:51:06.431Z,91734.69
2023-01-17T06:53:32.925Z,91726.06
2023-01-17T06:55:59.347Z,91718.06
2023-01-17T06:58:25.759Z,91718.03
2023-01-17T07:00:52.301Z,91718.63
2023-01-17T07:03:18.778Z,91707.63
2023-01-17T07:05:45.200Z,91705.00
2023-01-17T07:08:11.600Z,91700.81
2023-01-17T07:10:38.024Z,91697.41
2023-01-17T07:13:04.431Z,91692.41
2023-01-17T07:15:30.829Z,91699.22
2023-01-17T07:17:57.290Z,91690.97
2023-01-17T07:20:23.680Z,91689.16
2023-01-17T07:22:50.103Z,91675.97
2023-01-17T07:25:16.487Z,91673.31
2023-01-17T07:27:42.911Z,91670.13
2023-01-17T07:30:09.341Z,91676.72
2023-01-17T07:32:35.733Z,91667.13
2023-01-17T07:35:02.132Z,91665.31
2023-01-17T07:37:28.539Z,91656.50
2023-01-17T07:39:54.935Z,91661.13
2023-01-17T07:42:23.754Z,91660.72
2023-01-17T07:44:50.429Z,91662.94
2023-01-17T07:47:16.823Z,91668.16
2023-01-17T07:49:43.243Z,91672.16
2023-01-17T07:52:09.631Z,91670.56
2023-01-17T07:54:36.038Z,91667.97
2023-01-17T07:57:02.464Z,91653.94
2023-01-17T07:59:28.874Z,91657.16
2023-01-17T08:01:55.407Z,91665.56
2023-01-17T08:04:21.915Z,91665.38
2023-01-17T08:06:48.328Z,91651.34
2023-01-17T08:09:14.711Z,91653.78
2023-01-17T08:11:41.100Z,91651.56
2023-01-17T08:14:07.547Z,91645.34
2023-01-17T08:16:34.005Z,91643.53
2023-01-17T08:19:00.440Z,91637.13
2023-01-17T08:21:26.851Z,91642.75
2023-01-17T08:23:53.267Z,91637.91
2023-01-17T08:26:19.727Z,91630.28
2023-01-17T08:28:46.130Z,91625.31
2023-01-17T08:31:12.612Z,91631.53
2023-01-17T08:33:39.037Z,91622.47
2023-01-17T08:36:05.433Z,91630.72
2023-01-17T08:38:31.964Z,91638.34
2023-01-17T08:40:58.375Z,91627.69
2023-01-17T08:43:24.804Z,91630.91
2023-01-17T08:45:51.224Z,91633.31
2023-01-17T08:48:17.633Z,91629.09
2023-01-17T08:50:44.025Z,91617.69
2023-01-17T08:53:10.428Z,91616.06
2023-01-17T08:55:36.854Z,91603.84
2023-01-17T08:58:03.267Z,91610.66
2023-01-17T09:00:29.694Z,91607.84
2023-01-17T09:02:56.093Z,91605.44
2023-01-17T09:05:22.474Z,91608.03
2023-01-17T09:07:48.909Z,91615.47
2023-01-17T09:10:15.316Z,91609.66
2023-01-17T09:12:41.702Z,91612.84
2023-01-17T09:15:08.144Z,91601.44
2023-01-17T09:17:34.568Z,91594.78
2023-01-17T09:20:00.956Z,91592.81
2023-01-17T09:22:27.380Z,91591.19
2023-01-17T09:24:53.806Z,91591.81
2023-01-17T09:27:20.190Z,91599.00
2023-01-17T09:29:46.570Z,91594.41
2023-01-17T09:32:12.970Z,91593.19
2023-01-17T09:34:39.362Z,91600.44
2023-01-17T09:37:05.769Z,91592.00
2023-01-17T09:39:32.169Z,91590.19
2023-01-17T09:41:58.584Z,91592.19
2023-01-17T09:44:24.997Z,91593.59
2023-01-17T09:46:51.371Z,91591.00
2023-01-17T09:49:17.785Z,91598.41
2023-01-17T09:51:44.179Z,91595.59
2023-01-17T09:54:10.616Z,91593.63
2023-01-17T09:56:37.038Z,91588.97
2023-01-17T09:59:03.433Z,91600.81
2023-01-17T10:01:29.966Z,91598.59
2023-01-17T10:03:56.654Z,91602.63
2023-01-17T10:06:23.106Z,91605.03
2023-01-17T10:08:49.533Z,91605.63
2023-01-17T10:11:15.914Z,91596.78
2023-01-17T10:13:42.313Z,91587.16
2023-01-17T10:16:08.744Z,91584.38
2023-01-17T10:18:35.173Z,91581.97
2023-01-17T10:21:01.623Z,91572.72
2023-01-17T10:23:28.047Z,91562.69
2023-01-17T10:25:54.492Z,91560.88
2023-01-17T10:28:21.026Z,91554.25
2023-01-17T10:30:47.437Z,91547.44
2023-01-17T10:33:13.870Z,91544.03
2023-01-17T10:35:40.266Z,91538.81
2023-01-17T10:38:06.736Z,91538.00
2023-01-17T10:40:33.207Z,91533.59
2023-01-17T10:42:59.668Z,91530.97
2023-01-17T10:45:26.103Z,91516.16
2023-01-17T10:47:52.513Z,91512.75
2023-01-17T10:50:19.001Z,91510.56
2023-01-17T10:52:45.458Z,91509.94
2023-01-17T10:55:11.861Z,91506.94
2023-01-17T10:57:38.294Z,91502.31
2023-01-17T11:00:04.681Z,91488.28
2023-01-17T11:02:31.179Z,91484.03
2023-01-17T11:04:57.679Z,91480.44
2023-01-17T11:07:24.125Z,91477.81
2023-01-17T11:09:50.499Z,91482.84
2023-01-17T11:12:16.897Z,91485.44
2023-01-17T11:14:43.352Z,91477.81
2023-01-17T11:17:09.746Z,91480.63
2023-01-17T11:19:36.190Z,91473.84
2023-01-17T11:22:02.611Z,91476.03
2023-01-17T11:24:29.014Z,91476.22
2023-01-17T11:26:55.429Z,91473.25
2023-01-17T11:29:21.805Z,91465.63
2023-01-17T11:31:48.183Z,91464.41
2023-01-17T11:34:14.646Z,91470.63
2023-01-17T11:36:41.044Z,91476.22
2023-01-17T11:39:07.452Z,91469.84
2023-01-17T11:41:33.863Z,91471.06
2023-01-17T11:44:00.294Z,91462.63
2023-01-17T11:46:26.747Z,91467.66
2023-01-17T11:48:55.901Z,91455.19
2023-01-17T11:51:22.655Z,91446.81
2023-01-17T11:53:49.061Z,91451.03
2023-01-17T11:56:15.484Z,91449.03
2023-01-17T11:58:41.877Z,91452.03
2023-01-17T12:01:08.296Z,91448.66
2023-01-17T12:03:34.762Z,91447.88
2023-01-17T12:06:01.216Z,91448.06
2023-01-17T12:08:27.611Z,91451.06
2023-01-17T12:10:53.997Z,91456.69
2023-01-17T12:13:20.456Z,91451.25
2023-01-17T12:15:46.926Z,91446.00
2023-01-17T12:18:13.320Z,91446.19
2023-01-17T12:20:39.702Z,91451.41
2023-01-17T12:23:06.091Z,91450.19
2023-01-17T12:25:32.508Z,91455.78
2023-01-17T12:27:58.905Z,91453.38
2023-01-17T12:30:25.276Z,91438.50
2023-01-17T12:32:51.682Z,91443.09
2023-01-17T12:35:18.107Z,91445.47
2023-01-17T12:37:44.525Z,91441.63
2023-01-17T12:40:10.926Z,91444.41
2023-01-17T12:42:37.334Z,91448.81
2023-01-17T12:45:03.728Z,91453.19
2023-01-17T12:47:30.129Z,91443.34
2023-01-17T12:49:56.538Z,91452.88
2023-01-17T12:52:22.961Z,91445.81
2023-01-17T12:54:49.369Z,91431.75
2023-01-17T12:57:15.769Z,91439.59
2023-01-17T12:59:42.185Z,91440.06
2023-01-17T13:02:08.627Z,91440.94
2023-01-17T13:04:35.044Z,91437.72
2023-01-17T13:07:01.456Z,91429.09
2023-01-17T13:09:27.877Z,91427.09
2023-01-17T13:11:54.299Z,91417.09
2023-01-17T13:14:20.699Z,91430.56
2023-01-17T13:16:47.131Z,91431.56
2023-01-17T13:19:13.530Z,91430.75
2023-01-17T13:21:40.029Z,91438.19
2023-01-17T13:24:06.438Z,91433.78
2023-01-17T13:26:32.852Z,91426.56
2023-01-17T13:28:59.273Z,91425.94
2023-01-17T13:31:25.778Z,91426.31
2023-01-17T13:33:52.210Z,91420.44
2023-01-17T13:36:18.648Z,91427.28
2023-01-17T13:38:45.052Z,91434.09
2023-01-17T13:41:11.479Z,91429.88
2023-01-17T13:43:37.865Z,91434.72
2023-01-17T13:46:04.314Z,91432.75
2023-01-17T13:48:30.758Z,91438.97
2023-01-17T13:50:57.169Z,91453.84
2023-01-17T13:53:23.588Z,91450.03
2023-01-17T13:55:50.030Z,91459.69
2023-01-17T13:58:16.433Z,91454.47
2023-01-17T14:00:42.868Z,91460.47
2023-01-17T14:03:09.398Z,91455.47
2023-01-17T14:05:35.812Z,91455.25
2023-01-17T14:08:02.208Z,91466.88
2023-01-17T14:10:28.673Z,91458.41
2023-01-17T14:12:55.093Z,91464.00
2023-01-17T14:15:21.505Z,91463.25
2023-01-17T14:17:47.907Z,91466.63
2023-01-17T14:20:14.436Z,91469.47
2023-01-17T14:22:40.842Z,91465.03
2023-01-17T14:25:07.243Z,91467.66
2023-01-17T14:27:33.619Z,91465.84
2023-01-17T14:30:00.039Z,91471.84
2023-01-17T14:32:26.499Z,91464.25
2023-01-17T14:34:52.898Z,91472.66
2023-01-17T14:37:19.344Z,91475.47
2023-01-17T14:39:45.780Z,91486.13
2023-01-17T14:42:12.183Z,91483.72
2023-01-17T14:44:39.526Z,91494.34
2023-01-17T14:47:05.898Z,91488.56
2023-01-17T14:49:32.295Z,91498.00
2023-01-17T14:51:58.734Z,91495.97
2023-01-17T14:54:25.253Z,91500.34
2023-01-17T14:56:51.646Z,91492.50
2023-01-17T14:59:18.070Z,91486.44
2023-01-17T15:01:55.231Z,91491.63
2023-01-17T15:04:28.354Z,91503.41
2023-01-17T15:06:54.724Z,91500.75
2023-01-17T15:09:21.133Z,91496.31
2023-01-17T15:11:47.534Z,91487.88
2023-01-17T15:14:13.945Z,91483.66
2023-01-17T15:16:40.391Z,91488.50
2023-01-17T15:19:06.793Z,91480.50
2023-01-17T15:21:33.222Z,91476.91
2023-01-17T15:23:59.659Z,91484.34
2023-01-17T15:26:26.065Z,91471.53
2023-01-17T15:28:52.469Z,91471.78
2023-01-17T15:31:18.890Z,91476.06
2023-01-17T15:33:45.254Z,91474.88
2023-01-17T15:36:11.690Z,91466.69
2023-01-17T15:38:39.301Z,91463.69
2023-01-17T15:41:05.884Z,91463.50
2023-01-17T15:43:32.291Z,91469.75
2023-01-17T15:45:58.998Z,91470.75
2023-01-17T15:48:25.545Z,91459.31
2023-01-17T15:50:51.957Z,91464.13
2023-01-17T15:53:18.363Z,91453.09
2023-01-17T15:55:44.752Z,91457.75
2023-01-17T15:58:11.151Z,91465.81
2023-01-17T16:00:37.528Z,91466.66
2023-01-17T16:03:04.044Z,91478.28
2023-01-17T16:05:30.476Z,91470.47
2023-01-17T16:07:56.902Z,91476.28
2023-01-17T16:10:23.316Z,91481.06
2023-01-17T16:12:49.950Z,91472.25
2023-01-17T16:15:18.319Z,91493.13
2023-01-17T16:17:44.869Z,91487.69
2023-01-17T16:20:11.283Z,91491.31
2023-01-17T16:22:38.017Z,91498.72
2023-01-17T16:25:04.462Z,91507.13
2023-01-17T16:27:32.472Z,91509.56
2023-01-17T16:29:58.856Z,91518.97
2023-01-17T16:32:25.272Z,91513.97
2023-01-17T16:34:51.714Z,91516.16
2023-01-17T16:37:18.128Z,91517.38
2023-01-17T16:39:46.843Z,91516.75
2023-01-17T16:42:13.353Z,91511.75
2023-01-17T16:44:39.773Z,91507.97
2023-01-17T16:47:06.143Z,91509.97
2023-01-17T16:49:32.549Z,91503.97
2023-01-17T16:51:58.933Z,91514.41
2023-01-17T16:54:25.341Z,91516.78
2023-01-17T16:56:51.727Z,91512.97
2023-01-17T16:59:18.141Z,91511.56
2023-01-17T17:01:44.738Z,91505.13
2023-01-17T17:04:11.189Z,91508.56
2023-01-17T17:06:37.608Z,91511.75
2023-01-17T17:09:04.038Z,91513.94
2023-01-17T17:11:30.501Z,91510.94
2023-01-17T17:13:57.069Z,91519.75
2023-01-17T17:16:23.469Z,91517.13
2023-01-17T17:18:49.858Z,91518.56
2023-01-17T17:21:16.253Z,91522.16
2023-01-17T17:23:42.794Z,91527.38
2023-01-17T17:26:09.160Z,91529.59
2023-01-17T17:28:35.543Z,91533.22
2023-01-17T17:31:01.992Z,91538.63
2023-01-17T17:33:28.427Z,91534.63
2023-01-17T17:35:54.827Z,91537.25
2023-01-17T17:38:21.229Z,91543.25
2023-01-17T17:40:47.633Z,91543.63
2023-01-17T17:43:14.049Z,91548.06
2023-01-17T17:45:40.425Z,91543.63
2023-01-17T17:48:06.907Z,91550.25
2023-01-17T17:50:33.324Z,91533.81
2023-01-17T17:52:59.751Z,91542.84
2023-01-17T17:55:26.210Z,91540.22
2023-01-17T17:57:52.925Z,91543.03
2023-01-17T18:00:19.461Z,91539.22
2023-01-17T18:02:45.847Z,91537.41
2023-01-17T18:05:12.249Z,91534.19
2023-01-17T18:07:38.680Z,91533.41
2023-01-17T18:10:05.089Z,91542.63
2023-01-17T18:12:31.496Z,91545.25
2023-01-17T18:14:57.902Z,91554.06
2023-01-17T18:17:24.308Z,91556.88
2023-01-17T18:19:50.737Z,91561.91
2023-01-17T18:22:17.120Z,91564.50
2023-01-17T18:24:43.550Z,91561.50
2023-01-17T18:27:09.975Z,91556.88
2023-01-17T18:29:36.356Z,91568.34
2023-01-17T18:32:02.821Z,91574.13
2023-01-17T18:34:29.318Z,91575.75
2023-01-17T18:36:55.844Z,91577.34
2023-01-17T18:39:22.328Z,91580.34
2023-01-17T18:41:48.719Z,91584.75
2023-01-17T18:44:15.106Z,91583.94
2023-01-17T18:46:41.492Z,91579.72
2023-01-17T18:49:07.908Z,91573.94
2023-01-17T18:51:34.356Z,91579.97
2023-01-17T18:54:00.843Z,91578.97
2023-01-17T18:56:27.260Z,91584.38
2023-01-17T18:58:53.664Z,91584.38
2023-01-17T19:01:20.407Z,91581.97
2023-01-17T19:03:46.943Z,91580.34
2023-01-17T19:06:13.364Z,91568.31
2023-01-17T19:08:39.759Z,91572.94
2023-01-17T19:11:06.147Z,91577.34
2023-01-17T19:13:32.545Z,91575.75
2023-01-17T19:15:58.939Z,91579.16
2023-01-17T19:18:25.333Z,91573.94
2023-01-17T19:20:51.700Z,91582.38
2023-01-17T19:23:18.093Z,91582.75
2023-01-17T19:25:44.471Z,91581.56
2023-01-17T19:28:10.864Z,91582.38
2023-01-17T19:30:37.267Z,91586.59
2023-01-17T19:33:03.638Z,91582.94
2023-01-17T19:35:30.035Z,91587.97
2023-01-17T19:37:56.743Z,91603.19
2023-01-17T19:40:23.393Z,91589.19
2023-01-17T19:42:49.801Z,91604.03
2023-01-17T19:45:16.180Z,91603.22
2023-01-17T19:47:42.633Z,91600.81
2023-01-17T19:50:09.034Z,91603.84
2023-01-17T19:52:35.425Z,91612.28
2023-01-17T19:55:01.820Z,91605.84
2023-01-17T19:57:28.387Z,91608.44
2023-01-17T19:59:54.789Z,91614.84
2023-01-17T20:02:21.227Z,91611.25
2023-01-17T20:04:47.701Z,91610.44
2023-01-17T20:07:14.115Z,91612.25
2023-01-17T20:09:40.510Z,91611.25
2023-01-17T20:12:06.892Z,91614.47
2023-01-17T20:14:33.272Z,91607.44
2023-01-17T20:16:59.666Z,91615.88
2023-01-17T20:19:26.059Z,91607.84
2023-01-17T20:21:52.441Z,91614.06
2023-01-17T20:24:18.839Z,91609.03
2023-01-17T20:26:45.247Z,91614.25
2023-01-17T20:29:11.638Z,91600.41
2023-01-17T20:31:38.230Z,91603.81
2023-01-17T20:34:04.730Z,91609.03
2023-01-17T20:36:31.132Z,91611.25
2023-01-17T20:38:57.542Z,91616.06
2023-01-17T20:41:23.966Z,91602.63
2023-01-17T20:43:50.372Z,91599.84
2023-01-17T20:46:16.822Z,91599.22
2023-01-17T20:48:43.213Z,91598.03
2023-01-17T20:51:09.628Z,91597.00
2023-01-17T20:53:36.054Z,91602.03
2023-01-17T20:56:02.491Z,91595.44
2023-01-17T20:58:28.872Z,91595.19
2023-01-17T21:00:55.296Z,91606.22
2023-01-17T21:03:21.733Z,91611.44
2023-01-17T21:05:48.115Z,91612.44
2023-01-17T21:08:14.499Z,91619.25
2023-01-17T21:10:40.881Z,91623.44
2023-01-17T21:13:07.293Z,91627.88
2023-01-17T21:15:33.687Z,91633.84
2023-01-17T21:18:00.124Z,91630.06
2023-01-17T21:20:26.504Z,91654.31
2023-01-17T21:22:52.885Z,91654.31
2023-01-17T21:25:19.268Z,91651.13
2023-01-17T21:27:45.691Z,91655.34
2023-01-17T21:30:12.112Z,91659.16
2023-01-17T21:32:38.522Z,91676.19
2023-01-17T21:35:05.193Z,91671.22
2023-01-17T21:37:31.617Z,91669.41
2023-01-17T21:39:58.010Z,91672.81
2023-01-17T21:42:24.439Z,91682.22
2023-01-17T21:44:50.835Z,91678.63
2023-01-17T21:47:17.200Z,91690.25
2023-01-17T21:49:43.690Z,91685.66
2023-01-17T21:52:10.120Z,91678.22
2023-01-17T21:54:36.489Z,91691.88
2023-01-17T21:57:02.885Z,91698.69
2023-01-17T21:59:29.286Z,91698.72
2023-01-17T22:01:55.717Z,91701.72
2023-01-17T22:04:22.111Z,91702.50
2023-01-17T22:06:48.542Z,91703.50
2023-01-17T22:09:14.961Z,91713.53
2023-01-17T22:11:41.343Z,91708.91
2023-01-17T22:14:07.739Z,91708.34
2023-01-17T22:16:34.156Z,91709.31
2023-01-17T22:19:00.528Z,91717.94
2023-01-17T22:21:26.946Z,91720.16
2023-01-17T22:23:53.365Z,91726.16
2023-01-17T22:26:19.867Z,91733.19
2023-01-17T22:28:46.266Z,91741.03
2023-01-17T22:31:12.694Z,91735.44
2023-01-17T22:33:39.108Z,91739.84
2023-01-17T22:36:05.536Z,91735.22
2023-01-17T22:38:31.943Z,91744.63
2023-01-17T22:40:58.346Z,91738.59
2023-01-17T22:43:24.806Z,91750.25
2023-01-17T22:45:51.232Z,91750.44
2023-01-17T22:48:17.643Z,91767.69
2023-01-17T22:50:44.038Z,91764.09
2023-01-17T22:53:10.441Z,91761.25
2023-01-17T22:55:36.807Z,91755.84
2023-01-17T22:58:03.234Z,91749.63
2023-01-17T23:00:29.647Z,91761.03
2023-01-17T23:02:56.467Z,91759.41
2023-01-17T23:05:23.092Z,91758.03
2023-01-17T23:07:49.504Z,91760.44
2023-01-17T23:10:15.906Z,91757.22
2023-01-17T23:12:42.339Z,91751.00
2023-01-17T23:15:08.785Z,91757.03
2023-01-17T23:17:35.174Z,91756.03
2023-01-17T23:20:01.630Z,91766.06
2023-01-17T23:22:28.035Z,91752.22
2023-01-17T23:24:54.455Z,91748.63
2023-01-17T23:27:20.861Z,91753.22
2023-01-17T23:29:47.278Z,91759.41
2023-01-17T23:32:13.681Z,91752.81
2023-01-17T23:34:40.103Z,91761.44
2023-01-17T23:37:06.511Z,91766.25
2023-01-17T23:39:32.874Z,91772.25
2023-01-17T23:41:59.287Z,91768.63
2023-01-17T23:44:25.671Z,91773.84
2023-01-17T23:46:52.201Z,91769.84
2023-01-17T23:49:18.651Z,91767.63
2023-01-17T23:51:45.069Z,91770.06
2023-01-17T23:54:11.470Z,91773.47
2023-01-17T23:56:37.978Z,91772.66
2023-01-17T23:59:04.405Z,91786.94
